Time;durP1;ratioP1;P1;durP2;ratioP2;P2;SDS_P1;SDS_P2;PMS_P1;PMS_P2;Temp;Humidity;BMP_temperature;BMP_pressure;BME280_temperature;BME280_humidity;BME280_pressure;Samples;Min_cycle;Max_cycle;Signal;HPM_P1;HPM_P2
2022/04/03 00:01:26;;;;;;;23.70;16.73;;;;;;;2.36;100.00;96153.53;5050676;28;20071;-59
2022/04/03 00:03:55;;;;;;;20.45;15.40;;;;;;;2.36;100.00;96150.09;5048618;28;20057;-59
2022/04/03 00:06:25;;;;;;;23.13;17.80;;;;;;;2.18;100.00;96151.31;5046253;28;20593;-61
2022/04/03 00:08:53;;;;;;;22.25;15.82;;;;;;;2.23;100.00;96152.66;5045026;28;20100;-60
2022/04/03 00:11:22;;;;;;;25.55;18.20;;;;;;;2.32;100.00;96156.44;5049552;28;20068;-60
2022/04/03 00:13:50;;;;;;;24.98;17.55;;;;;;;2.25;100.00;96163.81;5047550;28;20076;-58
2022/04/03 00:16:18;;;;;;;24.58;18.20;;;;;;;2.47;100.00;96155.41;5047947;28;20081;-59
2022/04/03 00:18:47;;;;;;;25.88;17.38;;;;;;;2.32;100.00;96153.84;5047828;28;20072;-60
2022/04/03 00:21:15;;;;;;;24.55;17.38;;;;;;;2.20;100.00;96155.47;5047495;28;20084;-59
2022/04/03 00:23:45;;;;;;;23.63;17.70;;;;;;;2.25;100.00;96155.19;5047729;28;20068;-61
2022/04/03 00:26:13;;;;;;;23.88;16.95;;;;;;;2.09;100.00;96153.56;5049434;28;20064;-61
2022/04/03 00:28:42;;;;;;;24.27;18.08;;;;;;;1.99;100.00;96159.47;5044307;28;20064;-59
2022/04/03 00:31:11;;;;;;;23.52;17.75;;;;;;;2.08;100.00;96164.91;5046580;28;20072;-60
2022/04/03 00:33:39;;;;;;;24.67;17.60;;;;;;;2.01;100.00;96161.06;5046726;28;20107;-57
2022/04/03 00:36:08;;;;;;;23.40;15.30;;;;;;;1.85;100.00;96165.56;5047220;28;20083;-60
2022/04/03 00:38:36;;;;;;;19.98;13.93;;;;;;;1.91;100.00;96167.78;5047612;28;20080;-60
2022/04/03 00:41:06;;;;;;;19.48;14.40;;;;;;;1.86;100.00;96164.66;5046896;28;20467;-58
2022/04/03 00:43:35;;;;;;;22.60;16.50;;;;;;;2.00;100.00;96161.16;5046558;28;20073;-61
2022/04/03 00:46:05;;;;;;;23.08;16.85;;;;;;;2.04;100.00;96167.81;5045180;28;20123;-55
2022/04/03 00:48:34;;;;;;;22.98;17.30;;;;;;;2.12;100.00;96168.97;5046672;28;20087;-56
2022/04/03 00:51:02;;;;;;;24.88;18.52;;;;;;;2.23;100.00;96167.44;5047795;28;20096;-58
2022/04/03 00:53:30;;;;;;;23.83;18.20;;;;;;;2.22;100.00;96173.59;5048769;28;20070;-60
2022/04/03 00:55:59;;;;;;;26.63;18.98;;;;;;;2.13;100.00;96162.88;5046659;28;20071;-56
2022/04/03 00:58:29;;;;;;;24.00;17.42;;;;;;;2.15;100.00;96160.16;5046870;28;20079;-57
2022/04/03 01:00:57;;;;;;;24.25;17.40;;;;;;;2.10;100.00;96170.88;5045704;28;20083;-56
2022/04/03 01:03:25;;;;;;;24.05;18.30;;;;;;;2.23;100.00;96167.44;5046331;28;20122;-57
2022/04/03 01:05:55;;;;;;;23.58;17.02;;;;;;;2.06;100.00;96166.78;5047336;28;20124;-58
2022/04/03 01:08:25;;;;;;;24.80;17.83;;;;;;;2.26;100.00;96168.06;5046710;28;20083;-60
2022/04/03 01:10:53;;;;;;;24.63;17.40;;;;;;;2.14;100.00;96172.31;5045557;28;20068;-57
2022/04/03 01:13:22;;;;;;;17.92;13.82;;;;;;;2.07;100.00;96167.63;5047467;28;20067;-58
2022/04/03 01:15:56;;;;;;;21.60;16.05;;;;;;;2.06;100.00;96165.94;5047749;28;20065;-56
2022/04/03 01:18:24;;;;;;;19.27;14.23;;;;;;;1.95;100.00;96165.81;5046755;28;20064;-56
2022/04/03 01:20:53;;;;;;;25.75;17.48;;;;;;;2.02;100.00;96161.88;5046959;28;20064;-60
2022/04/03 01:23:22;;;;;;;22.20;15.57;;;;;;;1.98;100.00;96168.22;5047444;28;20072;-56
2022/04/03 01:25:51;;;;;;;22.85;16.63;;;;;;;2.09;100.00;96176.16;5046487;28;20072;-54
2022/04/03 01:28:20;;;;;;;20.43;15.53;;;;;;;2.01;100.00;96162.81;5045582;28;20549;-56
2022/04/03 01:30:49;;;;;;;20.00;14.30;;;;;;;1.97;100.00;96177.78;5045462;28;20075;-56
2022/04/03 01:33:18;;;;;;;20.42;15.50;;;;;;;1.96;100.00;96172.66;5048809;28;20091;-55
2022/04/03 01:35:46;;;;;;;22.90;16.23;;;;;;;2.00;100.00;96175.00;5046171;28;20072;-59
2022/04/03 01:38:14;;;;;;;21.73;15.63;;;;;;;2.01;100.00;96175.81;5044088;28;20067;-54
2022/04/03 01:40:43;;;;;;;20.02;15.13;;;;;;;2.03;100.00;96177.41;5045100;28;20068;-55
2022/04/03 01:43:13;;;;;;;22.35;16.50;;;;;;;1.99;100.00;96178.50;5046094;28;20064;-56
2022/04/03 01:45:41;;;;;;;22.13;16.33;;;;;;;2.08;100.00;96177.09;5046990;28;20518;-57
2022/04/03 01:48:11;;;;;;;24.27;17.37;;;;;;;2.03;100.00;96176.53;5045212;28;20568;-57
2022/04/03 01:50:39;;;;;;;21.98;16.63;;;;;;;2.07;100.00;96178.88;5046216;28;20064;-53
2022/04/03 01:53:07;;;;;;;18.92;13.48;;;;;;;1.99;100.00;96180.28;5042258;28;20068;-56
2022/04/03 01:55:36;;;;;;;22.48;16.80;;;;;;;2.03;100.00;96173.94;5047327;28;20060;-60
2022/04/03 01:58:08;;;;;;;21.25;15.70;;;;;;;2.04;100.00;96179.06;5045717;28;20060;-59
2022/04/03 02:00:39;;;;;;;24.05;16.85;;;;;;;1.88;100.00;96187.00;5045211;28;20057;-54
2022/04/03 02:03:08;;;;;;;22.15;16.70;;;;;;;1.99;100.00;96181.09;5044247;28;20498;-57
2022/04/03 02:05:36;;;;;;;26.65;17.55;;;;;;;1.95;100.00;96176.22;5047149;28;20087;-58
2022/04/03 02:08:05;;;;;;;24.50;17.60;;;;;;;1.87;100.00;96181.91;5045605;28;20079;-53
2022/04/03 02:10:34;;;;;;;25.20;18.48;;;;;;;1.59;100.00;96172.44;5045997;28;20746;-53
2022/04/03 02:13:02;;;;;;;25.33;17.08;;;;;;;1.60;100.00;96179.28;5045653;28;20057;-50
2022/04/03 02:15:30;;;;;;;25.42;17.15;;;;;;;1.70;100.00;96180.38;5059601;28;20053;-54
2022/04/03 02:18:00;;;;;;;25.90;17.00;;;;;;;1.66;100.00;96184.13;5046820;28;20037;-52
2022/04/03 02:20:31;;;;;;;23.73;16.75;;;;;;;1.66;100.00;96187.53;5043210;28;20367;-55
2022/04/03 02:22:59;;;;;;;23.95;16.73;;;;;;;1.56;100.00;96183.84;5044216;28;20079;-58
2022/04/03 02:25:28;;;;;;;23.13;16.55;;;;;;;1.54;100.00;96188.31;5045158;28;20104;-52
2022/04/03 02:27:57;;;;;;;26.30;18.10;;;;;;;1.58;100.00;96196.75;5045471;28;20064;-55
2022/04/03 02:30:26;;;;;;;24.65;17.48;;;;;;;1.57;100.00;96190.72;5044844;28;20056;-56
2022/04/03 02:32:54;;;;;;;25.50;18.38;;;;;;;1.56;100.00;96189.06;5044295;28;20095;-55
2022/04/03 02:35:24;;;;;;;25.35;17.83;;;;;;;1.58;100.00;96191.53;5045478;28;20075;-55
2022/04/03 02:37:53;;;;;;;27.20;18.37;;;;;;;1.64;100.00;96189.41;5045608;28;20429;-58
2022/04/03 02:40:21;;;;;;;29.45;18.67;;;;;;;1.65;100.00;96193.69;5044954;28;20073;-55
2022/04/03 02:42:50;;;;;;;24.38;17.55;;;;;;;1.68;100.00;96195.22;5046253;28;20053;-57
2022/04/03 02:45:19;;;;;;;24.75;17.98;;;;;;;1.67;100.00;96191.81;5045191;28;20084;-57
2022/04/03 02:47:52;;;;;;;27.58;17.20;;;;;;;1.64;100.00;96189.41;5044568;28;20056;-54
2022/04/03 02:50:21;;;;;;;26.05;18.13;;;;;;;1.59;100.00;96206.22;5044910;28;20463;-57
2022/04/03 02:52:52;;;;;;;27.95;18.45;;;;;;;1.82;100.00;96196.97;5045055;28;20068;-59
2022/04/03 02:55:21;;;;;;;25.75;17.90;;;;;;;1.78;100.00;96205.88;5046050;28;20088;-57
2022/04/03 02:57:50;;;;;;;25.52;17.17;;;;;;;1.76;100.00;96202.56;5044741;28;20056;-58
2022/04/03 03:00:18;;;;;;;22.80;15.88;;;;;;;1.66;100.00;96213.53;5046062;28;20069;-59
2022/04/03 03:02:48;;;;;;;22.50;16.13;;;;;;;1.77;100.00;96210.25;5049973;28;20041;-61
2022/04/03 03:05:17;;;;;;;24.42;16.27;;;;;;;1.78;100.00;96211.91;5048697;28;20063;-57
2022/04/03 03:07:46;;;;;;;20.35;14.50;;;;;;;1.72;100.00;96209.72;5047134;28;20548;-56
2022/04/03 03:10:17;;;;;;;21.70;15.93;;;;;;;1.78;100.00;96204.13;5049097;28;20068;-57
2022/04/03 03:12:46;;;;;;;;;;;;;;;1.84;100.00;96213.31;5052986;28;20506;-55
2022/04/03 03:15:15;;;;;;;25.55;16.20;;;;;;;1.93;100.00;96214.47;5048377;28;20256;-60
2022/04/03 03:17:43;;;;;;;27.00;17.15;;;;;;;2.02;100.00;96216.50;5049222;28;20089;-58
2022/04/03 03:20:18;;;;;;;24.38;15.65;;;;;;;1.90;100.00;96218.13;5048477;28;20080;-60
2022/04/03 03:22:47;;;;;;;23.10;16.55;;;;;;;1.82;100.00;96225.56;5048183;28;20076;-54
2022/04/03 03:25:16;;;;;;;22.73;16.10;;;;;;;1.87;100.00;96223.50;5048952;28;20084;-56
2022/04/03 03:27:45;;;;;;;22.08;14.88;;;;;;;1.79;100.00;96228.34;5048378;28;20045;-57
2022/04/03 03:30:13;;;;;;;23.35;16.38;;;;;;;1.88;100.00;96220.81;5050056;28;20395;-57
2022/04/03 03:32:41;;;;;;;23.80;16.15;;;;;;;1.79;100.00;96225.75;5049414;28;20329;-59
2022/04/03 03:35:11;;;;;;;21.23;16.10;;;;;;;1.80;100.00;96228.25;5049709;28;20085;-59
2022/04/03 03:37:39;;;;;;;22.92;15.70;;;;;;;1.76;100.00;96231.16;5050154;28;20071;-54
2022/04/03 03:40:11;;;;;;;23.42;15.55;;;;;;;1.92;100.00;96229.25;5048805;28;20507;-58
2022/04/03 03:42:42;;;;;;;24.20;15.55;;;;;;;1.93;100.00;96230.06;5048427;28;20527;-60
2022/04/03 03:45:12;;;;;;;22.45;16.13;;;;;;;1.97;100.00;96231.56;5050159;28;20069;-57
2022/04/03 03:47:41;;;;;;;21.17;15.82;;;;;;;1.98;100.00;96233.22;5047671;28;20498;-59
2022/04/03 03:50:09;;;;;;;23.40;16.02;;;;;;;2.02;100.00;96232.91;5047952;28;20444;-55
2022/04/03 03:52:38;;;;;;;23.20;16.20;;;;;;;2.09;100.00;96236.78;5046995;28;20065;-60
2022/04/03 03:55:08;;;;;;;24.13;15.98;;;;;;;2.22;100.00;96236.03;5046920;28;20064;-56
2022/04/03 03:57:38;;;;;;;21.92;16.23;;;;;;;2.11;100.00;96236.72;5048270;28;20056;-56
2022/04/03 04:00:10;;;;;;;22.05;15.82;;;;;;;2.13;100.00;96242.63;5050837;28;20064;-57
2022/04/03 04:02:38;;;;;;;24.13;16.33;;;;;;;2.18;100.00;96248.41;5049973;28;20069;-56
2022/04/03 04:05:08;;;;;;;22.67;16.13;;;;;;;2.23;100.00;96248.91;5049919;28;20463;-57
2022/04/03 04:07:41;;;;;;;23.90;16.77;;;;;;;2.20;100.00;96249.13;5048596;28;20068;-57
2022/04/03 04:10:11;;;;;;;27.98;16.52;;;;;;;2.17;100.00;96251.94;5047098;28;20539;-56
2022/04/03 04:12:40;;;;;;;23.83;16.40;;;;;;;2.10;100.00;96248.88;5050826;28;20499;-58
2022/04/03 04:15:11;;;;;;;25.00;17.08;;;;;;;2.20;100.00;96256.09;5048402;28;20511;-59
2022/04/03 04:17:41;;;;;;;24.83;17.38;;;;;;;2.07;100.00;96251.69;5047839;28;20079;-58
2022/04/03 04:20:12;;;;;;;24.83;17.70;;;;;;;2.04;100.00;96246.69;5046340;28;20485;-59
2022/04/03 04:22:41;;;;;;;23.52;17.23;;;;;;;2.10;100.00;96261.06;5048488;28;20060;-58
2022/04/03 04:25:11;;;;;;;26.38;18.02;;;;;;;2.24;100.00;96255.81;5049425;28;20072;-61
2022/04/03 04:27:40;;;;;;;26.42;17.30;;;;;;;2.13;100.00;96259.09;5050119;28;20076;-59
2022/04/03 04:30:10;;;;;;;27.48;17.80;;;;;;;2.13;100.00;96259.09;5047838;28;20071;-56
2022/04/03 04:32:38;;;;;;;26.27;18.77;;;;;;;2.07;100.00;96266.47;5048218;28;20080;-59
2022/04/03 04:35:07;;;;;;;28.63;18.33;;;;;;;2.13;100.00;96266.91;5048769;28;20071;-60
2022/04/03 04:37:36;;;;;;;26.15;17.92;;;;;;;2.20;100.00;96269.91;5049719;28;20076;-59
2022/04/03 04:40:06;;;;;;;27.02;17.27;;;;;;;2.11;100.00;96273.97;5038183;28;20069;-58
2022/04/03 04:42:34;;;;;;;25.52;17.65;;;;;;;2.15;100.00;96274.59;5026997;28;20077;-58
2022/04/03 04:45:03;;;;;;;27.15;18.08;;;;;;;2.11;100.00;96273.97;5028257;28;20594;-56
2022/04/03 04:47:35;;;;;;;27.02;18.80;;;;;;;2.26;100.00;96279.13;5028147;28;20068;-55
2022/04/03 04:50:07;;;;;;;26.20;18.38;;;;;;;2.26;100.00;96286.91;5026749;28;20065;-57
2022/04/03 04:52:35;;;;;;;25.95;17.80;;;;;;;2.23;100.00;96290.53;5027692;28;20069;-56
2022/04/03 04:55:05;;;;;;;29.45;19.58;;;;;;;2.37;100.00;96281.84;5027478;28;20068;-57
2022/04/03 04:57:34;;;;;;;31.30;19.23;;;;;;;2.43;100.00;96289.28;5027590;28;20467;-55
2022/04/03 05:00:04;;;;;;;29.48;19.30;;;;;;;2.57;100.00;96286.59;5026541;28;20144;-58
2022/04/03 05:02:32;;;;;;;28.52;18.90;;;;;;;2.56;100.00;96290.16;5027489;28;20080;-57
2022/04/03 05:05:02;;;;;;;29.77;18.90;;;;;;;2.45;100.00;96289.19;5026966;28;20569;-55
2022/04/03 05:07:30;;;;;;;27.67;18.33;;;;;;;2.36;100.00;96294.03;5026975;28;20452;-58
2022/04/03 05:09:58;;;;;;;26.77;18.48;;;;;;;2.24;100.00;96296.59;5027029;28;20072;-60
2022/04/03 05:12:26;;;;;;;30.50;17.88;;;;;;;2.34;100.00;96305.47;5030013;28;20068;-60
2022/04/03 05:14:55;;;;;;;28.60;18.40;;;;;;;2.31;100.00;96300.47;5025214;28;20075;-58
2022/04/03 05:17:23;;;;;;;27.55;17.92;;;;;;;2.24;100.00;96301.81;5026375;28;20468;-58
2022/04/03 05:19:51;;;;;;;26.40;17.27;;;;;;;2.23;100.00;96302.72;5027209;28;20073;-57
2022/04/03 05:22:23;;;;;;;26.52;18.23;;;;;;;2.32;100.00;96315.16;5029364;28;20068;-54
2022/04/03 05:24:51;;;;;;;23.13;15.93;;;;;;;2.03;100.00;96309.16;5027693;28;20069;-59
2022/04/03 05:27:19;;;;;;;19.77;12.98;;;;;;;1.97;100.00;96318.22;5029453;28;20092;-55
2022/04/03 05:29:48;;;;;;;22.77;16.15;;;;;;;1.89;100.00;96318.69;5029424;28;20527;-57
2022/04/03 05:32:25;;;;;;;25.15;15.90;;;;;;;2.04;100.00;96318.66;5029402;28;20068;-54
2022/04/03 05:34:54;;;;;;;24.20;16.45;;;;;;;2.10;100.00;96319.13;5026341;28;20467;-58
2022/04/03 05:37:24;;;;;;;27.52;17.38;;;;;;;2.21;100.00;96325.41;5028815;28;20065;-53
2022/04/03 05:39:53;;;;;;;24.42;16.42;;;;;;;2.34;100.00;96323.69;5029043;28;20069;-56
2022/04/03 05:42:21;;;;;;;23.92;15.73;;;;;;;2.25;100.00;96326.88;5028494;28;20586;-54
2022/04/03 05:44:50;;;;;;;24.92;16.02;;;;;;;2.22;100.00;96330.50;5029612;28;20148;-56
2022/04/03 05:47:19;;;;;;;23.15;16.73;;;;;;;2.47;100.00;96334.16;5030232;28;20312;-55
2022/04/03 05:49:47;;;;;;;24.73;17.63;;;;;;;2.40;100.00;96333.69;5029130;28;20068;-53
2022/04/03 05:52:15;;;;;;;23.95;15.57;;;;;;;2.28;100.00;96331.91;5029260;28;20065;-54
2022/04/03 05:54:45;;;;;;;22.42;14.10;;;;;;;2.20;100.00;96336.72;5028829;28;20060;-56
2022/04/03 05:57:14;;;;;;;21.13;14.43;;;;;;;2.10;100.00;96337.31;5029410;28;20088;-56
2022/04/03 05:59:42;;;;;;;22.38;14.48;;;;;;;2.17;100.00;96342.13;5027922;28;20075;-52
2022/04/03 06:02:12;;;;;;;19.27;12.77;;;;;;;2.02;100.00;96343.91;5029143;28;20057;-54
2022/04/03 06:04:40;;;;;;;;;;;;;;;2.26;100.00;96344.16;5031765;28;20437;-57
2022/04/03 06:07:09;;;;;;;22.42;14.95;;;;;;;2.22;100.00;96347.88;5028867;28;20455;-59
2022/04/03 06:09:37;;;;;;;17.83;12.82;;;;;;;2.20;100.00;96352.34;5028183;28;20068;-56
2022/04/03 06:12:09;;;;;;;15.07;10.93;;;;;;;2.20;100.00;96353.16;5029127;28;20041;-58
2022/04/03 06:14:37;;;;;;;19.98;13.40;;;;;;;2.23;100.00;96352.16;5028944;28;20068;-57
2022/04/03 06:17:05;;;;;;;15.25;10.25;;;;;;;2.12;100.00;96356.25;5028637;28;20077;-52
2022/04/03 06:19:34;;;;;;;21.02;13.57;;;;;;;2.38;100.00;96361.59;5028484;28;20140;-57
2022/04/03 06:22:02;;;;;;;14.98;9.82;;;;;;;2.20;100.00;96366.19;5028690;28;20072;-57
2022/04/03 06:24:30;;;;;;;21.60;14.85;;;;;;;2.30;100.00;96361.25;5027878;28;20065;-56
2022/04/03 06:26:58;;;;;;;12.80;9.13;;;;;;;2.15;100.00;96370.84;5024045;28;20057;-57
2022/04/03 06:29:28;;;;;;;21.27;14.38;;;;;;;2.50;100.00;96367.78;5024198;28;20530;-56
2022/04/03 06:31:56;;;;;;;18.73;13.82;;;;;;;2.35;100.00;96369.59;5024003;28;20057;-57
2022/04/03 06:34:24;;;;;;;16.33;11.80;;;;;;;2.32;100.00;96375.00;5024821;28;20077;-59
2022/04/03 06:36:54;;;;;;;12.90;8.90;;;;;;;2.12;100.00;96373.63;5024821;28;20069;-56
2022/04/03 06:39:22;;;;;;;15.95;11.82;;;;;;;2.32;100.00;96375.00;5023478;28;20064;-53
2022/04/03 06:41:50;;;;;;;13.57;10.93;;;;;;;2.31;100.00;96384.56;5025120;28;20072;-55
2022/04/03 06:44:18;;;;;;;17.70;12.90;;;;;;;2.63;100.00;96379.09;5024129;28;20068;-58
2022/04/03 06:46:48;;;;;;;17.55;11.93;;;;;;;2.70;100.00;96380.38;5024693;28;20065;-55
2022/04/03 06:49:16;;;;;;;17.33;12.03;;;;;;;2.97;100.00;96384.75;5025183;28;20782;-56
2022/04/03 06:51:45;;;;;;;17.60;12.73;;;;;;;2.75;100.00;96386.13;5026081;28;20542;-56
2022/04/03 06:54:13;;;;;;;18.75;12.90;;;;;;;2.84;100.00;96385.53;5022405;28;20065;-55
2022/04/03 06:56:41;;;;;;;19.30;13.20;;;;;;;2.70;100.00;96387.34;5023442;28;20096;-59
2022/04/03 06:59:10;;;;;;;19.27;12.73;;;;;;;2.87;100.00;96392.31;5020339;28;20066;-53
2022/04/03 07:01:38;;;;;;;18.75;13.30;;;;;;;3.13;100.00;96387.16;5024388;28;20337;-51
2022/04/03 07:04:08;;;;;;;17.77;13.38;;;;;;;3.40;100.00;96387.94;5024732;28;20072;-55
2022/04/03 07:06:36;;;;;;;19.67;13.32;;;;;;;3.24;100.00;96389.91;5025158;28;20073;-55
2022/04/03 07:09:05;;;;;;;17.77;13.18;;;;;;;2.97;100.00;96397.75;5021586;28;20074;-58
2022/04/03 07:11:33;;;;;;;18.48;13.05;;;;;;;2.90;100.00;96391.28;5023635;28;20080;-56
2022/04/03 07:14:02;;;;;;;8.55;7.38;;;;;;;2.85;100.00;96400.22;5025306;28;20057;-52
2022/04/03 07:16:30;;;;;;;15.25;12.10;;;;;;;2.73;100.00;96405.38;5024629;28;20061;-48
2022/04/03 07:18:59;;;;;;;16.88;11.90;;;;;;;2.86;100.00;96408.88;5023608;28;21151;-54
2022/04/03 07:21:28;;;;;;;17.38;12.38;;;;;;;2.86;100.00;96408.88;5025075;28;20061;-55
2022/04/03 07:23:57;;;;;;;17.80;11.73;;;;;;;2.63;100.00;96409.50;5025362;28;20077;-53
2022/04/03 07:26:25;;;;;;;18.30;13.00;;;;;;;2.95;100.00;96413.47;5024386;28;20136;-50
2022/04/03 07:28:53;;;;;;;12.15;9.25;;;;;;;2.86;100.00;96411.47;5021322;28;20061;-51
2022/04/03 07:31:22;;;;;;;14.68;10.82;;;;;;;2.91;100.00;96416.38;5024594;28;20061;-55
2022/04/03 07:33:50;;;;;;;16.40;12.40;;;;;;;2.94;100.00;96419.63;5025231;28;20088;-54
2022/04/03 07:36:19;;;;;;;15.32;11.68;;;;;;;3.25;100.00;96423.69;5023506;28;20076;-58
2022/04/03 07:38:48;;;;;;;17.85;12.57;;;;;;;3.24;100.00;96421.19;5023955;28;20141;-59
2022/04/03 07:41:16;;;;;;;18.80;12.57;;;;;;;3.18;100.00;96427.63;5024432;28;20096;-54
2022/04/03 07:43:45;;;;;;;15.57;12.32;;;;;;;3.38;100.00;96430.69;5024473;28;20073;-56
2022/04/03 07:46:16;;;;;;;17.60;12.63;;;;;;;3.52;100.00;96426.25;5026271;28;20080;-55
2022/04/03 07:48:44;;;;;;;16.63;12.60;;;;;;;3.23;100.00;96433.34;5027270;28;20061;-57
2022/04/03 07:51:12;;;;;;;15.80;11.40;;;;;;;3.17;100.00;96431.16;5027988;28;20077;-56
2022/04/03 07:53:41;;;;;;;17.63;12.52;;;;;;;3.42;100.00;96437.38;5027469;28;20204;-57
2022/04/03 07:56:11;;;;;;;17.48;11.30;;;;;;;3.39;100.00;96441.00;5028826;28;20065;-55
2022/04/03 07:58:39;;;;;;;18.23;11.63;;;;;;;3.84;100.00;96435.44;5029314;28;20064;-54
2022/04/03 08:01:07;;;;;;;20.73;14.30;;;;;;;3.66;100.00;96445.34;5028281;28;20110;-54
2022/04/03 08:03:35;;;;;;;18.63;13.70;;;;;;;3.37;100.00;96450.69;5029589;28;20079;-60
2022/04/03 08:06:04;;;;;;;16.40;11.10;;;;;;;3.19;100.00;96450.13;5024998;28;20073;-57
2022/04/03 08:08:33;;;;;;;9.43;7.70;;;;;;;3.11;100.00;96449.81;5024871;28;20073;-54
2022/04/03 08:11:01;;;;;;;15.80;11.10;;;;;;;3.31;100.00;96451.13;5028133;28;20084;-57
2022/04/03 08:13:30;;;;;;;16.25;12.70;;;;;;;3.85;100.00;96463.19;5027445;28;20065;-59
2022/04/03 08:16:01;;;;;;;14.40;10.27;;;;;;;3.85;100.00;96463.19;5027581;28;20135;-55
2022/04/03 08:18:29;;;;;;;14.82;10.88;;;;;;;4.00;100.00;96457.78;5026429;28;20073;-56
2022/04/03 08:21:03;;;;;;;12.60;9.32;;;;;;;3.75;100.00;96462.97;5027545;28;20095;-54
2022/04/03 08:23:31;;;;;;;12.02;7.70;;;;;;;3.67;100.00;96462.66;5025425;28;20074;-57
2022/04/03 08:25:59;;;;;;;11.05;9.45;;;;;;;3.83;100.00;96471.13;5028072;28;20076;-58
2022/04/03 08:28:28;;;;;;;13.23;10.18;;;;;;;3.73;100.00;96473.50;5026693;28;20069;-58
2022/04/03 08:30:58;;;;;;;12.77;10.38;;;;;;;3.89;100.00;96467.25;5026692;28;20085;-56
2022/04/03 08:33:33;;;;;;;13.73;11.02;;;;;;;4.31;100.00;96473.97;5027825;28;20069;-57
2022/04/03 08:36:03;;;;;;;13.65;10.05;;;;;;;4.25;100.00;96469.97;5027871;28;20069;-58
2022/04/03 08:38:31;;;;;;;11.23;9.15;;;;;;;4.29;100.00;96473.22;5027366;28;20076;-59
2022/04/03 08:41:00;;;;;;;10.20;8.82;;;;;;;4.31;100.00;96479.19;5027791;28;20519;-58
2022/04/03 08:43:28;;;;;;;5.82;5.05;;;;;;;4.16;100.00;96480.22;5026999;28;20079;-59
2022/04/03 08:45:58;;;;;;;9.25;7.15;;;;;;;4.21;100.00;96483.34;5028266;28;20075;-58
2022/04/03 08:48:28;;;;;;;9.75;7.93;;;;;;;4.59;100.00;96483.31;5025777;28;20072;-59
2022/04/03 08:50:57;;;;;;;9.05;7.82;;;;;;;4.68;100.00;96482.69;5027612;28;20080;-58
2022/04/03 08:53:28;;;;;;;10.82;9.70;;;;;;;5.67;100.00;96476.41;5026285;28;20512;-58
2022/04/03 08:55:56;;;;;;;;;;;;;;;6.05;100.00;96473.56;5025553;28;20507;-56
2022/04/03 08:58:24;;;;;;;12.00;10.20;;;;;;;6.55;100.00;96466.22;5025789;28;19959;-58
2022/04/03 09:00:53;;;;;;;11.75;9.90;;;;;;;6.07;100.00;96481.31;5027111;28;20461;-51
2022/04/03 09:03:22;;;;;;;12.02;9.05;;;;;;;4.83;100.00;96488.59;5029524;28;20091;-56
2022/04/03 09:05:51;;;;;;;11.67;9.73;;;;;;;4.20;100.00;96485.13;5025825;28;20550;-58
2022/04/03 09:08:36;;;;;;;12.70;9.10;;;;;;;4.08;100.00;96485.97;5023334;28;20893;-53
2022/04/03 09:11:05;;;;;;;6.43;5.55;;;;;;;3.42;100.00;96489.50;5039122;28;20118;-56
2022/04/03 09:13:34;;;;;;;10.40;8.63;;;;;;;3.69;100.00;96492.09;5025465;28;20084;-54
2022/04/03 09:16:03;;;;;;;8.25;6.97;;;;;;;3.47;100.00;96490.03;5026999;28;20069;-58
2022/04/03 09:18:46;;;;;;;11.30;9.63;;;;;;;3.83;100.00;96493.78;5024599;28;20068;-59
2022/04/03 09:21:19;;;;;;;8.70;6.25;;;;;;;3.45;100.00;96499.75;5021618;28;20081;-58
2022/04/03 09:23:57;;;;;;;11.50;8.38;;;;;;;3.77;100.00;96500.22;5026666;28;20085;-54
2022/04/03 09:26:26;;;;;;;7.82;7.00;;;;;;;4.07;100.00;96499.94;5024709;28;20461;-54
2022/04/03 09:29:06;;;;;;;7.35;6.53;;;;;;;3.67;100.00;96506.97;5026377;28;20668;-52
2022/04/03 09:31:35;;;;;;;10.77;9.13;;;;;;;4.50;100.00;96497.84;5023786;28;20076;-57
2022/04/03 09:34:06;;;;;;;10.88;8.48;;;;;;;4.75;100.00;96501.38;5027076;28;20175;-54
2022/04/03 09:36:35;;;;;;;9.85;7.78;;;;;;;4.47;100.00;96498.06;5025205;28;20784;-57
2022/04/03 09:39:08;;;;;;;8.35;7.05;;;;;;;4.26;100.00;96497.75;5026873;28;20089;-56
2022/04/03 09:41:56;;;;;;;11.57;7.93;;;;;;;4.16;100.00;96501.91;5026284;28;20081;-55
2022/04/03 09:44:26;;;;;;;10.77;8.68;;;;;;;4.18;100.00;96501.81;5026756;28;20314;-59
2022/04/03 09:47:15;;;;;;;7.57;5.68;;;;;;;3.74;100.00;96516.91;5025701;28;20072;-58
2022/04/03 09:49:46;;;;;;;11.68;9.25;;;;;;;4.67;100.00;96503.66;5024087;28;20064;-57
2022/04/03 09:52:52;;;;;;;9.98;7.65;;;;;;;4.37;100.00;96509.22;5023723;28;20077;-57
2022/04/03 09:55:22;;;;;;;8.55;6.40;;;;;;;4.20;100.00;96513.84;5023375;28;20077;-51
2022/04/03 09:57:51;;;;;;;7.95;6.63;;;;;;;3.85;100.00;96510.97;5025833;28;20076;-53
2022/04/03 10:00:41;;;;;;;8.20;7.28;;;;;;;3.82;100.00;96519.03;5023141;28;20065;-53
2022/04/03 10:03:11;;;;;;;5.90;5.32;;;;;;;3.57;100.00;96518.00;5026240;28;20081;-56
2022/04/03 10:05:42;;;;;;;12.32;5.75;;;;;;;3.72;100.00;96517.97;5025924;28;20080;-56
2022/04/03 10:08:11;;;;;;;;;;;;;;;3.90;100.00;96518.50;5025977;28;20492;-57
2022/04/03 10:10:39;;;;;;;9.30;8.40;;;;;;;5.18;100.00;96500.91;5024164;28;20010;-56
2022/04/03 10:13:10;;;;;;;10.02;6.63;;;;;;;4.85;100.00;96506.75;5026188;28;20068;-59
2022/04/03 10:15:38;;;;;;;6.82;6.13;;;;;;;4.89;100.00;96503.84;5023110;28;20539;-60
2022/04/03 10:18:07;;;;;;;8.98;7.45;;;;;;;5.46;100.00;96503.19;5024329;28;20092;-60
2022/04/03 10:20:37;;;;;;;9.75;8.35;;;;;;;5.55;100.00;96493.03;5022856;28;20081;-59
2022/04/03 10:23:10;;;;;;;9.18;7.38;;;;;;;5.83;100.00;96497.03;5023699;28;20065;-58
2022/04/03 10:25:42;;;;;;;9.20;8.13;;;;;;;5.73;100.00;96494.25;5023269;28;20068;-59
2022/04/03 10:28:10;;;;;;;5.55;5.03;;;;;;;5.05;100.00;96494.91;5024875;28;20068;-58
2022/04/03 10:30:42;;;;;;;8.10;7.30;;;;;;;5.39;100.00;96491.50;5039085;28;20064;-58
2022/04/03 10:33:19;;;;;;;9.77;7.55;;;;;;;5.15;100.00;96499.34;5026385;28;20088;-55
2022/04/03 10:35:49;;;;;;;9.48;7.32;;;;;;;5.29;100.00;96492.28;5025318;28;20081;-57
2022/04/03 10:38:19;;;;;;;8.52;7.13;;;;;;;5.73;100.00;96494.25;5023431;28;20073;-56
2022/04/03 10:40:56;;;;;;;;;;;;;;;5.82;100.00;96490.97;5022324;28;20061;-58
2022/04/03 10:43:26;;;;;;;7.50;4.88;;;;;;;5.51;100.00;96496.81;5024476;28;19975;-56
2022/04/03 10:45:55;;;;;;;5.35;4.85;;;;;;;4.55;100.00;96512.38;5022261;28;20062;-58
2022/04/03 10:48:30;;;;;;;5.70;5.10;;;;;;;4.03;100.00;96503.72;5028461;28;20052;-57
2022/04/03 10:51:05;;;;;;;6.80;6.10;;;;;;;3.95;100.00;96500.75;5044909;28;20076;-55
2022/04/03 10:53:37;;;;;;;7.07;6.28;;;;;;;4.24;100.00;96502.25;5023452;28;20593;-55
2022/04/03 10:56:10;;;;;;;5.88;4.72;;;;;;;4.14;100.00;96503.81;5024510;28;20057;-57
2022/04/03 10:58:41;;;;;;;7.70;6.90;;;;;;;4.32;100.00;96501.72;5038132;28;20049;-57
2022/04/03 11:01:24;;;;;;;13.30;6.97;;;;;;;4.40;100.00;96501.19;5023272;28;20680;-54
2022/04/03 11:03:55;;;;;;;8.18;6.00;;;;;;;4.68;100.00;96495.75;5019983;28;20121;-56
2022/04/03 11:06:37;;;;;;;7.05;5.63;;;;;;;4.43;100.00;96501.81;5021616;28;20088;-56
2022/04/03 11:09:11;;;;;;;9.05;6.25;;;;;;;5.12;100.00;96494.34;5024860;28;20068;-57
2022/04/03 11:11:45;;;;;;;8.52;7.15;;;;;;;5.78;100.00;96481.69;5032022;28;20084;-57
2022/04/03 11:14:50;;;;;;;7.07;5.95;;;;;;;5.94;100.00;96478.78;5025384;28;20186;-57
2022/04/03 11:17:19;;;;;;;10.88;5.68;;;;;;;5.23;100.00;96486.56;5023381;28;20038;-56
2022/04/03 11:19:48;;;;;;;4.00;3.67;;;;;;;4.57;100.00;96498.25;5022230;28;20066;-57
2022/04/03 11:22:18;;;;;;;8.35;6.68;;;;;;;4.08;100.00;96504.22;5036145;28;20067;-59
2022/04/03 11:24:49;;;;;;;5.07;4.47;;;;;;;3.60;100.00;96503.94;5046182;28;20159;-57
2022/04/03 11:27:17;;;;;;;6.25;5.20;;;;;;;3.16;100.00;96505.03;5047393;28;20068;-60
2022/04/03 11:29:46;;;;;;;6.15;5.10;;;;;;;3.42;100.00;96515.56;5050275;28;20060;-57
2022/04/03 11:32:15;;;;;;;7.00;5.95;;;;;;;3.67;100.00;96506.97;5046552;28;20065;-59
2022/04/03 11:34:43;;;;;;;7.40;6.47;;;;;;;3.68;100.00;96503.44;5046811;28;20077;-59